Airfield :
LOGIN :

Register | Disclaimer

   EN    FR    IT 

 










Legend :    VFR   Marginal VFR   IFR   Intensive IFR   Very Intensive IFR
Visi :
Ceiling :
>= 8 km
>= 3000ft
5 to 8 km
1000 to 3000 ft
1500m to 5 km
500 to 1000 ft
800 to 1500m
200 to 500 ft
< 800m
< 200 ft
Symbols :   Thunderstorms  Fog  Heavy snow  Heavy precipitations  Wind > 20 kt
SIGMETs :     Misc.  Thunderstorms  Icing  Turbulence  Mountain Waves  Volcanic Ashes






- Airport Elevation : 778 ft
- IATA code : BRQ


LKTB - Brno-Turany

CURRENT METAR :
  • 081000Z 13009KT 100V160 CAVOK 18/M06 Q1029 NOSIG

EXPIRED METARs :
  • 080930Z 15008KT 110V180 CAVOK 17/M03 Q1030 NOSIG
  • 080900Z 13009KT CAVOK 16/M04 Q1030 NOSIG
  • 080830Z 11009KT CAVOK 15/M05 Q1030 NOSIG
  • 080800Z 10007KT 070V130 CAVOK 14/M03 Q1030 NOSIG
  • 080730Z 09007KT CAVOK 13/M04 Q1030 NOSIG

TAF TAF LKTB
Valid from the 08 at 06:00 until the 09 at 12:00 UTC


080500Z 0806/0912 VRB02KT CAVOK
BECMG 0806/0808 13007KT
TEMPO 0810/0817 15010G20KT
BECMG 0818/0820 VRB02KT



MET'MAP, your aeronautical weather chart ! - Copyright ORBIFLY December 2007 - Disclaimer

ORBIFLY MET'MAP TEAM :

Programming & Development : Alexandra Zaïnal
Concept & original design : Baudouin d'Aumeries
Assistance for programming : Marc-Olivier Méhu
Technical & hardware support : Manuel Goepfert

Contact : metmap@orbifly.com




SOURCES & CREDITS :

   NOAA